Welcome to Northern Hawkes Bay. New Zealand.
PWS Header
      nz Flag



Hit Counter


W3C Valid W3C Valid logo


    Wairoa

Select any of the Stations below to visit their websites.










Historic Data from Weather Underground
Select the location of interest below. Wairoa is the default. Please have patience, this Data is slow to load in.
Northern Hawkes Bay Historical Data
Daily Summary for February 26, 2017 Units:  Metric    English   Both
« Previous Day
Next Day »
Daily Weekly Monthly Yearly Custom
  High: Low: Average:
Temperature: 22.1 °C 14.0 °C 17.7 °C
Dew Point: 17.2 °C 13.8 °C 15.5 °C
Humidity: 99% 68% 88%
Wind Speed: 14.8km/h 0.0km/h 6km/h
Wind Gust: 23.3km/h - -
Wind- - WSW
Pressure: 1026.3 hPa 1013.8 hPa -
Precipitation: 0.3 mm    
Historical Graphs
 
 
Tabular Data for February 26, 2017
Time Temperature Dew Point Pressure Wind Wind Speed Wind Gust Humidity Rainfall Rate (Hourly) solar
00:01 15.7 °C 14.7 °C 1013.8 hPa North 1.1 km/h 3.5 km/h 94% 0.0 mm 0 W/m2
00:06 15.6 °C 14.7 °C 1013.8 hPa NNW 1.1 km/h 3.5 km/h 94% 0.0 mm 0 W/m2
00:11 15.5 °C 14.6 °C 1014.1 hPa NNW 1.1 km/h 5.0 km/h 94% 0.0 mm 0 W/m2
00:16 15.5 °C 14.6 °C 1013.8 hPa Calm   5.0 km/h 94% 0.0 mm 0 W/m2
00:21 15.4 °C 14.4 °C 1013.8 hPa Calm   3.5 km/h 94% 0.0 mm 0 W/m2
00:40 15.2 °C 14.4 °C 1013.8 hPa Calm   2.6 km/h 95% 0.0 mm 0 W/m2
00:45 15.2 °C 14.4 °C 1014.1 hPa NNW 2.6 km/h 5.0 km/h 95% 0.0 mm 0 W/m2
00:50 15.1 °C 14.3 °C 1014.1 hPa Calm   5.0 km/h 95% 0.0 mm 0 W/m2
00:55 15.1 °C 14.3 °C 1014.1 hPa NW 2.6 km/h 5.0 km/h 95% 0.0 mm 0 W/m2
01:00 15.0 °C 14.4 °C 1014.1 hPa NW 3.5 km/h 5.0 km/h 96% 0.0 mm 0 W/m2
01:05 15.0 °C 14.4 °C 1014.1 hPa NW 3.5 km/h 6.1 km/h 96% 0.0 mm 0 W/m2
01:10 15.0 °C 14.4 °C 1014.1 hPa NW 2.6 km/h 6.1 km/h 96% 0.0 mm 0 W/m2
01:16 15.0 °C 14.4 °C 1014.1 hPa NW 2.6 km/h 7.2 km/h 96% 0.0 mm 0 W/m2
01:33 14.8 °C 14.2 °C 1014.1 hPa NNW 3.5 km/h 6.1 km/h 96% 0.0 mm 0 W/m2
01:38 14.8 °C 14.2 °C 1014.1 hPa NNW 3.5 km/h 7.2 km/h 96% 0.0 mm 0 W/m2
01:43 14.8 °C 14.3 °C 1014.1 hPa NNW 2.6 km/h 7.2 km/h 97% 0.0 mm 0 W/m2
01:48 14.8 °C 14.3 °C 1014.1 hPa NNW 3.5 km/h 6.1 km/h 97% 0.0 mm 0 W/m2
01:53 14.9 °C 14.4 °C 1014.4 hPa NW 3.5 km/h 7.2 km/h 97% 0.0 mm 0 W/m2
01:58 15.0 °C 14.4 °C 1014.1 hPa NW 3.5 km/h 7.2 km/h 96% 0.0 mm 0 W/m2
02:03 15.1 °C 14.6 °C 1014.1 hPa NNW 3.5 km/h 8.7 km/h 97% 0.0 mm 0 W/m2
02:08 15.1 °C 14.6 °C 1014.4 hPa NNW 5.0 km/h 8.7 km/h 97% 0.0 mm 0 W/m2
02:13 15.2 °C 14.7 °C 1014.4 hPa NW 5.0 km/h 7.2 km/h 97% 0.0 mm 0 W/m2
02:18 15.2 °C 14.7 °C 1014.4 hPa NW 2.6 km/h 7.2 km/h 97% 0.0 mm 0 W/m2
02:23 15.1 °C 14.6 °C 1014.1 hPa NW 5.0 km/h 7.2 km/h 97% 0.0 mm 0 W/m2
02:28 15.1 °C 14.6 °C 1014.1 hPa NW 2.6 km/h 7.2 km/h 97% 0.0 mm 0 W/m2
02:33 15.1 °C 14.6 °C 1014.1 hPa NNW 3.5 km/h 8.7 km/h 97% 0.0 mm 0 W/m2
02:38 15.1 °C 14.5 °C 1014.4 hPa NNW 1.1 km/h 8.7 km/h 96% 0.0 mm 0 W/m2
02:43 15.1 °C 14.5 °C 1014.4 hPa NW 1.1 km/h 7.2 km/h 96% 0.0 mm 0 W/m2
02:48 15.0 °C 14.4 °C 1014.4 hPa NNW 2.6 km/h 6.1 km/h 96% 0.0 mm 0 W/m2
02:53 14.9 °C 14.4 °C 1014.4 hPa NNW 1.1 km/h 6.1 km/h 97% 0.0 mm 0 W/m2
02:58 14.9 °C 14.4 °C 1014.4 hPa North 2.6 km/h 5.0 km/h 97% 0.0 mm 0 W/m2
03:03 14.8 °C 14.3 °C 1014.4 hPa Calm   3.5 km/h 97% 0.0 mm 0 W/m2
03:08 14.7 °C 14.2 °C 1014.4 hPa Calm   3.5 km/h 97% 0.0 mm 0 W/m2
03:13 14.7 °C 14.2 °C 1014.4 hPa Calm   1.1 km/h 97% 0.0 mm 0 W/m2
03:18 14.6 °C 14.1 °C 1014.4 hPa NNW 3.5 km/h 6.1 km/h 97% 0.0 mm 0 W/m2
03:23 14.6 °C 14.1 °C 1014.1 hPa NNW 1.1 km/h 6.1 km/h 97% 0.0 mm 0 W/m2
03:28 14.5 °C 14.2 °C 1014.1 hPa NNW 2.6 km/h 6.1 km/h 98% 0.0 mm 0 W/m2
03:33 14.5 °C 14.2 °C 1014.4 hPa NW 1.1 km/h 5.0 km/h 98% 0.0 mm 0 W/m2
03:38 14.5 °C 14.2 °C 1014.1 hPa NW 3.5 km/h 7.2 km/h 98% 0.0 mm 0 W/m2
03:43 14.4 °C 14.1 °C 1014.4 hPa NW 3.5 km/h 7.2 km/h 98% 0.0 mm 0 W/m2
03:48 14.4 °C 14.1 °C 1014.4 hPa NW 3.5 km/h 7.2 km/h 98% 0.0 mm 0 W/m2
03:53 14.4 °C 14.1 °C 1014.4 hPa NW 3.5 km/h 7.2 km/h 98% 0.0 mm 0 W/m2
03:58 14.4 °C 14.1 °C 1014.4 hPa NNW 2.6 km/h 6.1 km/h 98% 0.0 mm 0 W/m2
04:03 14.4 °C 14.3 °C 1014.4 hPa Calm   5.0 km/h 99% 0.0 mm 0 W/m2
04:08 14.3 °C 14.2 °C 1014.1 hPa NNW 1.1 km/h 5.0 km/h 99% 0.0 mm 0 W/m2
04:13 14.4 °C 14.3 °C 1014.4 hPa NNW 3.5 km/h 6.1 km/h 99% 0.0 mm 0 W/m2
04:18 14.4 °C 14.3 °C 1014.4 hPa NNW 3.5 km/h 7.2 km/h 99% 0.0 mm 0 W/m2
04:23 14.4 °C 14.3 °C 1014.4 hPa NW 2.6 km/h 7.2 km/h 99% 0.0 mm 0 W/m2
04:28 14.4 °C 14.3 °C 1014.4 hPa NW 3.5 km/h 7.2 km/h 99% 0.0 mm 0 W/m2
04:33 14.5 °C 14.3 °C 1014.4 hPa NW 3.5 km/h 7.2 km/h 99% 0.0 mm 0 W/m2
04:38 14.5 °C 14.3 °C 1014.4 hPa NW 2.6 km/h 7.2 km/h 99% 0.0 mm 0 W/m2
04:43 14.4 °C 14.3 °C 1014.4 hPa NW 2.6 km/h 7.2 km/h 99% 0.0 mm 0 W/m2
04:48 14.4 °C 14.3 °C 1014.4 hPa NNW 2.6 km/h 6.1 km/h 99% 0.0 mm 0 W/m2
04:53 14.3 °C 14.2 °C 1014.4 hPa NNW 2.6 km/h 6.1 km/h 99% 0.0 mm 0 W/m2
04:58 14.2 °C 14.1 °C 1014.4 hPa North 3.5 km/h 6.1 km/h 99% 0.0 mm 0 W/m2
05:03 14.2 °C 14.1 °C 1014.4 hPa North 2.6 km/h 6.1 km/h 99% 0.0 mm 0 W/m2
05:08 14.1 °C 13.9 °C 1014.4 hPa NNW 3.5 km/h 6.1 km/h 99% 0.0 mm 0 W/m2
05:13 14.1 °C 13.9 °C 1014.4 hPa NNW 2.6 km/h 6.1 km/h 99% 0.0 mm 0 W/m2
05:18 14.1 °C 13.9 °C 1014.4 hPa NNW 3.5 km/h 6.1 km/h 99% 0.0 mm 0 W/m2
05:23 14.1 °C 13.9 °C 1014.8 hPa NW 3.5 km/h 6.1 km/h 99% 0.0 mm 0 W/m2
05:28 14.1 °C 13.9 °C 1014.4 hPa NNW 5.0 km/h 7.2 km/h 99% 0.0 mm 0 W/m2
05:33 14.1 °C 13.9 °C 1014.8 hPa NNW 2.6 km/h 7.2 km/h 99% 0.0 mm 0 W/m2
05:38 14.1 °C 13.9 °C 1014.8 hPa NNW 2.6 km/h 7.2 km/h 99% 0.0 mm 0 W/m2
05:43 14.2 °C 14.1 °C 1014.8 hPa NNW 2.6 km/h 7.2 km/h 99% 0.0 mm 0 W/m2
05:48 14.2 °C 14.1 °C 1014.8 hPa NNW 2.6 km/h 7.2 km/h 99% 0.0 mm 0 W/m2
05:53 14.2 °C 14.1 °C 1014.8 hPa NNW 3.5 km/h 7.2 km/h 99% 0.0 mm 0 W/m2
05:58 14.3 °C 14.2 °C 1014.8 hPa NNW 1.1 km/h 6.1 km/h 99% 0.0 mm 0 W/m2
06:03 14.3 °C 14.2 °C 1015.1 hPa Calm   6.1 km/h 99% 0.0 mm 0 W/m2
06:08 14.3 °C 14.2 °C 1014.8 hPa NNW 1.1 km/h 3.5 km/h 99% 0.0 mm 0 W/m2
06:13 14.3 °C 14.2 °C 1015.1 hPa NNW 2.6 km/h 5.0 km/h 99% 0.0 mm 0 W/m2
06:18 14.3 °C 14.2 °C 1015.1 hPa NNW 1.1 km/h 5.0 km/h 99% 0.0 mm 0 W/m2
06:23 14.2 °C 14.1 °C 1015.1 hPa NW 2.6 km/h 6.1 km/h 99% 0.0 mm 0 W/m2
06:28 14.2 °C 14.1 °C 1015.1 hPa Calm   6.1 km/h 99% 0.0 mm 0 W/m2
06:33 14.0 °C 13.8 °C 1015.5 hPa NNW 2.6 km/h 5.0 km/h 99% 0.0 mm 0 W/m2
06:38 14.0 °C 13.8 °C 1015.5 hPa NW 2.6 km/h 7.2 km/h 99% 0.0 mm 0 W/m2
06:43 14.0 °C 13.8 °C 1015.5 hPa NW 3.5 km/h 7.2 km/h 99% 0.0 mm 0 W/m2
06:48 14.0 °C 13.8 °C 1015.5 hPa NNW 3.5 km/h 6.1 km/h 99% 0.0 mm 1 W/m2
06:53 14.0 °C 13.8 °C 1015.5 hPa NNW 5.0 km/h 6.1 km/h 99% 0.0 mm 4 W/m2
06:58 14.0 °C 13.8 °C 1015.8 hPa NW 5.0 km/h 7.2 km/h 99% 0.0 mm 6 W/m2
07:03 14.0 °C 13.8 °C 1015.8 hPa NW 2.6 km/h 7.2 km/h 99% 0.0 mm 9 W/m2
07:08 14.0 °C 13.8 °C 1015.8 hPa NNW 3.5 km/h 7.2 km/h 99% 0.0 mm 12 W/m2
07:13 14.0 °C 13.8 °C 1015.8 hPa NNW 1.1 km/h 6.1 km/h 99% 0.0 mm 17 W/m2
07:18 14.0 °C 13.8 °C 1016.1 hPa NNW 2.6 km/h 6.1 km/h 99% 0.0 mm 22 W/m2
07:23 14.1 °C 13.9 °C 1016.1 hPa NNW 2.6 km/h 7.2 km/h 99% 0.0 mm 30 W/m2
07:28 14.2 °C 14.1 °C 1016.1 hPa NNW 2.6 km/h 7.2 km/h 99% 0.0 mm 41 W/m2
07:33 14.4 °C 14.3 °C 1016.5 hPa NW 2.6 km/h 7.2 km/h 99% 0.0 mm 44 W/m2
07:38 14.6 °C 14.4 °C 1016.5 hPa NW 2.6 km/h 6.1 km/h 99% 0.0 mm 51 W/m2
07:43 14.7 °C 14.6 °C 1016.5 hPa NNW 3.5 km/h 6.1 km/h 99% 0.0 mm 56 W/m2
07:48 14.8 °C 14.7 °C 1016.5 hPa NNW 6.1 km/h 7.2 km/h 99% 0.0 mm 65 W/m2
07:53 14.9 °C 14.8 °C 1016.5 hPa NNW 2.6 km/h 7.2 km/h 99% 0.0 mm 53 W/m2
07:58 15.1 °C 14.9 °C 1016.8 hPa NW 3.5 km/h 7.2 km/h 99% 0.0 mm 47 W/m2
08:03 15.1 °C 14.9 °C 1016.8 hPa NW 2.6 km/h 6.1 km/h 99% 0.0 mm 47 W/m2
08:08 15.2 °C 15.1 °C 1016.8 hPa NW 1.1 km/h 7.2 km/h 99% 0.0 mm 56 W/m2
08:13 15.3 °C 15.2 °C 1016.8 hPa NW 5.0 km/h 7.2 km/h 99% 0.0 mm 98 W/m2
08:18 15.5 °C 15.3 °C 1016.8 hPa NNW 6.1 km/h 7.2 km/h 99% 0.0 mm 142 W/m2
08:23 15.8 °C 15.7 °C 1017.2 hPa NNW 3.5 km/h 8.7 km/h 99% 0.0 mm 122 W/m2
08:28 15.9 °C 15.8 °C 1017.2 hPa NNW 3.5 km/h 8.7 km/h 99% 0.0 mm 88 W/m2
08:33 16.0 °C 15.6 °C 1017.2 hPa NNW 3.5 km/h 8.7 km/h 97% 0.0 mm 86 W/m2
08:38 16.1 °C 15.4 °C 1017.2 hPa NW 3.5 km/h 8.7 km/h 96% 0.0 mm 74 W/m2
08:43 16.2 °C 15.4 °C 1017.5 hPa NW 5.0 km/h 9.7 km/h 95% 0.0 mm 95 W/m2
08:48 16.3 °C 15.3 °C 1017.5 hPa NNW 5.0 km/h 9.7 km/h 94% 0.0 mm 76 W/m2
08:53 16.4 °C 15.4 °C 1017.5 hPa Calm   7.2 km/h 94% 0.0 mm 71 W/m2
08:58 16.6 °C 15.7 °C 1017.5 hPa Calm   7.2 km/h 94% 0.0 mm 107 W/m2
09:03 17.0 °C 15.9 °C 1017.8 hPa Calm   6.1 km/h 93% 0.0 mm 208 W/m2
09:08 17.4 °C 16.3 °C 1017.5 hPa North 3.5 km/h 6.1 km/h 93% 0.0 mm 87 W/m2
09:13 17.5 °C 16.2 °C 1017.8 hPa NNW 3.5 km/h 8.7 km/h 92% 0.0 mm 89 W/m2
09:18 17.7 °C 16.2 °C 1017.8 hPa North 3.5 km/h 8.7 km/h 91% 0.0 mm 146 W/m2
09:23 17.9 °C 16.2 °C 1017.8 hPa North 2.6 km/h 6.1 km/h 90% 0.0 mm 142 W/m2
09:28 18.2 °C 16.6 °C 1018.2 hPa NNW 2.6 km/h 7.2 km/h 90% 0.0 mm 100 W/m2
09:33 18.5 °C 16.8 °C 1018.2 hPa WSW 12.2 km/h 17.2 km/h 90% 0.0 mm 39 W/m2
09:38 18.6 °C 16.9 °C 1018.2 hPa WSW 11.1 km/h 19.5 km/h 90% 0.0 mm 41 W/m2
09:43 18.5 °C 16.7 °C 1018.2 hPa WSW 7.2 km/h 19.5 km/h 89% 0.0 mm 47 W/m2
09:48 18.5 °C 16.7 °C 1018.2 hPa WSW 6.1 km/h 18.3 km/h 89% 0.0 mm 51 W/m2
09:53 18.5 °C 16.7 °C 1018.2 hPa SW 3.5 km/h 14.8 km/h 89% 0.0 mm 60 W/m2
09:58 18.6 °C 16.8 °C 1018.2 hPa SW 8.7 km/h 11.1 km/h 89% 0.0 mm 73 W/m2
10:03 18.9 °C 16.5 °C 1018.2 hPa SW 14.8 km/h 18.3 km/h 86% 0.0 mm 89 W/m2
10:08 19.1 °C 15.8 °C 1018.5 hPa SW 11.1 km/h 20.9 km/h 81% 0.0 mm 100 W/m2
10:13 19.3 °C 15.8 °C 1018.5 hPa SSW 8.7 km/h 20.9 km/h 80% 0.0 mm 109 W/m2
10:18 19.4 °C 16.1 °C 1018.5 hPa SSW 11.1 km/h 18.3 km/h 81% 0.0 mm 128 W/m2
10:23 19.4 °C 15.9 °C 1018.5 hPa SW 13.4 km/h 19.5 km/h 80% 0.0 mm 116 W/m2
10:28 19.4 °C 15.9 °C 1018.5 hPa SW 11.1 km/h 20.9 km/h 80% 0.0 mm 127 W/m2
10:33 19.4 °C 16.1 °C 1018.5 hPa SW 7.2 km/h 20.9 km/h 81% 0.0 mm 122 W/m2
10:38 19.3 °C 16.6 °C 1018.8 hPa SW 6.1 km/h 14.8 km/h 84% 0.0 mm 105 W/m2
10:43 18.9 °C 16.5 °C 1018.8 hPa SW 9.7 km/h 14.8 km/h 86% 0.0 mm 100 W/m2
10:48 18.6 °C 16.4 °C 1018.8 hPa SW 8.7 km/h 15.8 km/h 87% 0.0 mm 141 W/m2
10:53 18.5 °C 16.5 °C 1018.8 hPa SW 8.7 km/h 15.8 km/h 88% 0.0 mm 106 W/m2
10:58 18.4 °C 16.6 °C 1018.8 hPa SW 7.2 km/h 14.8 km/h 89% 0.0 mm 63 W/m2
11:03 18.3 °C 16.4 °C 1018.8 hPa SW 6.1 km/h 13.4 km/h 89% 0.0 mm 68 W/m2
11:08 18.2 °C 16.6 °C 1019.2 hPa SW 5.0 km/h 17.2 km/h 90% 0.0 mm 78 W/m2
11:13 18.3 °C 16.8 °C 1019.2 hPa SSW 2.6 km/h 17.2 km/h 91% 0.0 mm 89 W/m2
11:18 18.4 °C 17.1 °C 1019.2 hPa SSW 6.1 km/h 12.2 km/h 92% 0.0 mm 115 W/m2
11:23 18.5 °C 17.2 °C 1019.2 hPa South 7.2 km/h 12.2 km/h 92% 0.0 mm 155 W/m2
11:28 18.6 °C 17.1 °C 1019.2 hPa South 6.1 km/h 12.2 km/h 91% 0.0 mm 135 W/m2
11:33 18.6 °C 16.6 °C 1019.2 hPa South 7.2 km/h 14.8 km/h 88% 0.0 mm 115 W/m2
11:38 18.7 °C 16.7 °C 1019.2 hPa SSW 7.2 km/h 15.8 km/h 88% 0.0 mm 109 W/m2
11:43 18.8 °C 16.6 °C 1019.2 hPa SSW 5.0 km/h 15.8 km/h 87% 0.0 mm 111 W/m2
11:48 18.9 °C 16.7 °C 1019.2 hPa SSW 13.4 km/h 17.2 km/h 87% 0.0 mm 134 W/m2
11:53 19.1 °C 16.7 °C 1019.2 hPa SSW 14.8 km/h 18.3 km/h 86% 0.0 mm 132 W/m2
11:58 19.0 °C 16.6 °C 1019.2 hPa SSW 12.2 km/h 18.3 km/h 86% 0.0 mm 117 W/m2
12:03 18.7 °C 16.5 °C 1019.5 hPa SW 11.1 km/h 18.3 km/h 87% 0.0 mm 107 W/m2
12:08 18.5 °C 16.5 °C 1019.2 hPa WSW 8.7 km/h 15.8 km/h 88% 0.0 mm 160 W/m2
12:13 18.5 °C 16.5 °C 1019.2 hPa WSW 7.2 km/h 15.8 km/h 88% 0.0 mm 230 W/m2
12:18 18.7 °C 16.7 °C 1019.5 hPa WSW 9.7 km/h 15.8 km/h 88% 0.0 mm 207 W/m2
12:23 19.0 °C 16.6 °C 1019.5 hPa SW 6.1 km/h 13.4 km/h 86% 0.0 mm 311 W/m2
12:28 19.4 °C 16.8 °C 1019.5 hPa SW 9.7 km/h 14.8 km/h 85% 0.0 mm 405 W/m2
12:33 20.0 °C 16.8 °C 1019.5 hPa SW 8.7 km/h 14.8 km/h 82% 0.0 mm 402 W/m2
12:38 20.3 °C 16.6 °C 1019.5 hPa SW 7.2 km/h 15.8 km/h 79% 0.0 mm 378 W/m2
12:43 20.6 °C 16.7 °C 1019.5 hPa SW 7.2 km/h 18.3 km/h 78% 0.0 mm 388 W/m2
12:45 20.6 °C 16.4 °C 1019.5 hPa SW 7.2 km/h 18.3 km/h 77% 0.0 mm 425 W/m2
12:50 20.5 °C 16.3 °C 1019.5 hPa SW 8.7 km/h 18.3 km/h 77% 0.0 mm 454 W/m2
12:55 20.7 °C 16.3 °C 1019.9 hPa SSW 9.7 km/h 17.2 km/h 76% 0.0 mm 475 W/m2
13:00 20.8 °C 16.4 °C 1019.5 hPa SSW 7.2 km/h 17.2 km/h 76% 0.0 mm 499 W/m2
13:05 21.1 °C 16.5 °C 1019.5 hPa SSW 12.2 km/h 15.8 km/h 75% 0.0 mm 469 W/m2
13:10 21.1 °C 16.3 °C 1019.5 hPa SSW 9.7 km/h 17.2 km/h 74% 0.0 mm 395 W/m2
13:15 20.6 °C 16.2 °C 1019.9 hPa SW 12.2 km/h 19.5 km/h 76% 0.0 mm 282 W/m2
13:20 20.4 °C 16.2 °C 1019.5 hPa SW 11.1 km/h 19.5 km/h 77% 0.0 mm 315 W/m2
13:25 20.5 °C 16.3 °C 1019.9 hPa WSW 7.2 km/h 15.8 km/h 77% 0.0 mm 261 W/m2
13:30 20.4 °C 16.2 °C 1019.9 hPa SW 8.7 km/h 14.8 km/h 77% 0.0 mm 268 W/m2
13:35 20.4 °C 16.2 °C 1020.2 hPa SW 12.2 km/h 15.8 km/h 77% 0.0 mm 328 W/m2
13:40 20.4 °C 16.2 °C 1020.2 hPa SW 12.2 km/h 15.8 km/h 77% 0.0 mm 366 W/m2
13:45 20.3 °C 16.2 °C 1019.9 hPa SW 9.7 km/h 18.3 km/h 77% 0.0 mm 287 W/m2
13:50 20.4 °C 16.2 °C 1020.2 hPa SW 9.7 km/h 18.3 km/h 77% 0.0 mm 293 W/m2
13:55 20.4 °C 16.1 °C 1020.2 hPa SW 12.2 km/h 17.2 km/h 76% 0.0 mm 344 W/m2
14:00 20.3 °C 15.9 °C 1020.2 hPa SW 13.4 km/h 17.2 km/h 76% 0.0 mm 381 W/m2
14:05 20.4 °C 16.1 °C 1020.2 hPa SSW 8.7 km/h 18.3 km/h 76% 0.0 mm 341 W/m2
14:10 20.4 °C 16.1 °C 1020.2 hPa SW 7.2 km/h 19.5 km/h 76% 0.0 mm 333 W/m2
14:16 20.8 °C 16.2 °C 1020.2 hPa SW 13.4 km/h 20.9 km/h 75% 0.0 mm 409 W/m2
14:21 20.7 °C 16.1 °C 1020.5 hPa SW 9.7 km/h 20.9 km/h 75% 0.0 mm 427 W/m2
14:26 21.1 °C 16.1 °C 1020.5 hPa SSW 12.2 km/h 18.3 km/h 73% 0.0 mm 371 W/m2
14:31 21.2 °C 16.2 °C 1020.5 hPa SSW 13.4 km/h 18.3 km/h 73% 0.0 mm 714 W/m2
14:36 21.2 °C 15.7 °C 1020.2 hPa SSW 12.2 km/h 19.5 km/h 71% 0.0 mm 607 W/m2
14:41 21.3 °C 16.1 °C 1020.2 hPa South 12.2 km/h 19.5 km/h 72% 0.0 mm 432 W/m2
14:46 21.4 °C 15.9 °C 1020.2 hPa South 5.0 km/h 18.3 km/h 71% 0.0 mm 774 W/m2
14:51 21.7 °C 15.6 °C 1020.2 hPa SSW 12.2 km/h 18.3 km/h 68% 0.0 mm 475 W/m2
14:56 21.6 °C 15.7 °C 1020.5 hPa South 13.4 km/h 19.5 km/h 69% 0.0 mm 463 W/m2
15:01 21.3 °C 16.1 °C 1020.5 hPa South 6.1 km/h 19.5 km/h 72% 0.0 mm 464 W/m2
15:06 21.7 °C 16.0 °C 1020.5 hPa South 9.7 km/h 18.3 km/h 70% 0.0 mm 641 W/m2
15:11 22.1 °C 16.2 °C 1020.5 hPa SSW 11.1 km/h 17.2 km/h 69% 0.0 mm 498 W/m2
15:16 21.8 °C 15.7 °C 1020.5 hPa SSW 7.2 km/h 15.8 km/h 68% 0.0 mm 408 W/m2
15:21 21.6 °C 15.9 °C 1020.5 hPa SSW 7.2 km/h 15.8 km/h 70% 0.0 mm 434 W/m2
15:26 21.5 °C 16.3 °C 1020.9 hPa South 8.7 km/h 15.8 km/h 72% 0.0 mm 397 W/m2
15:31 21.2 °C 15.7 °C 1020.9 hPa South 9.7 km/h 18.3 km/h 71% 0.0 mm 364 W/m2
15:36 21.0 °C 16.0 °C 1020.9 hPa South 11.1 km/h 19.5 km/h 73% 0.0 mm 347 W/m2
15:41 20.9 °C 16.1 °C 1020.9 hPa South 8.7 km/h 19.5 km/h 74% 0.0 mm 344 W/m2
15:46 21.1 °C 15.9 °C 1020.9 hPa South 7.2 km/h 15.8 km/h 72% 0.0 mm 334 W/m2
15:51 21.1 °C 15.9 °C 1020.9 hPa SSW 12.2 km/h 15.8 km/h 72% 0.0 mm 316 W/m2
15:56 20.8 °C 16.0 °C 1020.9 hPa SSW 7.2 km/h 19.5 km/h 74% 0.0 mm 299 W/m2
16:01 21.0 °C 15.8 °C 1020.9 hPa South 12.2 km/h 19.5 km/h 72% 0.0 mm 311 W/m2
16:06 20.8 °C 16.0 °C 1020.9 hPa South 8.7 km/h 15.8 km/h 74% 0.0 mm 310 W/m2
16:11 20.7 °C 15.9 °C 1020.9 hPa South 8.7 km/h 15.8 km/h 74% 0.0 mm 323 W/m2
16:16 20.9 °C 16.1 °C 1021.2 hPa South 8.7 km/h 15.8 km/h 74% 0.0 mm 315 W/m2
16:21 20.8 °C 16.0 °C 1020.9 hPa South 8.7 km/h 15.8 km/h 74% 0.0 mm 305 W/m2
16:26 20.9 °C 15.9 °C 1020.9 hPa South 6.1 km/h 13.4 km/h 73% 0.0 mm 285 W/m2
16:31 20.7 °C 15.7 °C 1021.2 hPa South 8.7 km/h 14.8 km/h 73% 0.0 mm 242 W/m2
16:36 20.4 °C 15.8 °C 1021.2 hPa South 8.7 km/h 17.2 km/h 75% 0.0 mm 226 W/m2
16:41 20.4 °C 15.8 °C 1021.6 hPa SSW 6.1 km/h 17.2 km/h 75% 0.0 mm 228 W/m2
16:46 20.4 °C 15.8 °C 1021.2 hPa South 9.7 km/h 14.8 km/h 75% 0.0 mm 226 W/m2
16:51 20.3 °C 15.7 °C 1021.2 hPa South 8.7 km/h 15.8 km/h 75% 0.0 mm 198 W/m2
16:56 20.3 °C 15.7 °C 1021.2 hPa SSW 7.2 km/h 15.8 km/h 75% 0.0 mm 212 W/m2
17:01 20.4 °C 16.1 °C 1021.6 hPa SSW 7.2 km/h 15.8 km/h 76% 0.0 mm 207 W/m2
17:06 20.4 °C 15.8 °C 1021.6 hPa SSW 6.1 km/h 14.8 km/h 75% 0.0 mm 183 W/m2
17:11 20.4 °C 15.8 °C 1021.6 hPa SSW 6.1 km/h 14.8 km/h 75% 0.0 mm 182 W/m2
17:16 20.2 °C 15.4 °C 1021.6 hPa South 6.1 km/h 14.8 km/h 74% 0.0 mm 179 W/m2
17:21 20.1 °C 15.3 °C 1021.6 hPa South 7.2 km/h 14.8 km/h 74% 0.0 mm 164 W/m2
17:26 20.0 °C 15.0 °C 1021.6 hPa South 9.7 km/h 14.8 km/h 73% 0.0 mm 155 W/m2
17:31 20.0 °C 15.0 °C 1021.6 hPa South 3.5 km/h 14.8 km/h 73% 0.0 mm 150 W/m2
17:36 20.1 °C 15.1 °C 1021.6 hPa South 6.1 km/h 14.8 km/h 73% 0.0 mm 132 W/m2
17:41 20.0 °C 14.8 °C 1021.6 hPa South 3.5 km/h 17.2 km/h 72% 0.0 mm 127 W/m2
17:46 20.0 °C 14.8 °C 1021.6 hPa South 2.6 km/h 17.2 km/h 72% 0.0 mm 120 W/m2
17:51 20.0 °C 14.6 °C 1021.9 hPa South 8.7 km/h 12.2 km/h 71% 0.0 mm 108 W/m2
17:56 20.0 °C 14.8 °C 1021.9 hPa SSW 6.1 km/h 12.2 km/h 72% 0.0 mm 95 W/m2
18:01 20.0 °C 14.8 °C 1021.9 hPa SSW 7.2 km/h 9.7 km/h 72% 0.0 mm 85 W/m2
18:06 19.9 °C 15.2 °C 1021.9 hPa South 7.2 km/h 13.4 km/h 74% 0.0 mm 84 W/m2
18:11 19.8 °C 15.3 °C 1021.9 hPa South 2.6 km/h 13.4 km/h 75% 0.0 mm 77 W/m2
18:16 19.8 °C 15.4 °C 1022.2 hPa SSE 5.0 km/h 13.4 km/h 76% 0.0 mm 71 W/m2
18:21 19.7 °C 15.6 °C 1022.2 hPa South 3.5 km/h 13.4 km/h 77% 0.0 mm 63 W/m2
18:26 19.7 °C 15.6 °C 1022.2 hPa South 5.0 km/h 12.2 km/h 77% 0.0 mm 61 W/m2
18:31 19.6 °C 15.7 °C 1022.2 hPa South 6.1 km/h 12.2 km/h 78% 0.0 mm 57 W/m2
18:36 19.5 °C 15.2 °C 1022.2 hPa South 7.2 km/h 12.2 km/h 76% 0.0 mm 53 W/m2
18:41 19.4 °C 15.5 °C 1022.2 hPa SSW 7.2 km/h 12.2 km/h 78% 0.0 mm 51 W/m2
18:46 19.4 °C 15.5 °C 1022.2 hPa South 7.2 km/h 13.4 km/h 78% 0.0 mm 44 W/m2
18:51 19.4 °C 15.7 °C 1022.2 hPa South 5.0 km/h 13.4 km/h 79% 0.0 mm 35 W/m2
18:56 19.3 °C 15.6 °C 1022.6 hPa South 9.7 km/h 14.8 km/h 79% 0.0 mm 30 W/m2
19:01 19.2 °C 15.7 °C 1022.6 hPa South 6.1 km/h 14.8 km/h 80% 0.0 mm 26 W/m2
19:06 19.2 °C 15.7 °C 1022.6 hPa South 8.7 km/h 14.8 km/h 80% 0.0 mm 24 W/m2
19:11 19.2 °C 15.5 °C 1022.6 hPa South 5.0 km/h 11.1 km/h 79% 0.0 mm 21 W/m2
19:16 19.1 °C 15.4 °C 1022.9 hPa South 2.6 km/h 11.1 km/h 79% 0.0 mm 13 W/m2
19:21 19.1 °C 15.4 °C 1022.6 hPa South 3.5 km/h 11.1 km/h 79% 0.0 mm 13 W/m2
19:26 19.1 °C 15.4 °C 1022.9 hPa South 1.1 km/h 8.7 km/h 79% 0.0 mm 12 W/m2
19:31 19.1 °C 15.4 °C 1022.9 hPa SSE 5.0 km/h 8.7 km/h 79% 0.0 mm 10 W/m2
19:36 19.1 °C 15.6 °C 1022.9 hPa SSE 5.0 km/h 8.7 km/h 80% 0.0 mm 7 W/m2
19:41 19.0 °C 15.5 °C 1022.9 hPa South 5.0 km/h 9.7 km/h 80% 0.0 mm 4 W/m2
19:46 19.0 °C 15.7 °C 1023.2 hPa South 6.1 km/h 9.7 km/h 81% 0.0 mm 1 W/m2
19:51 19.0 °C 15.9 °C 1023.2 hPa South 2.6 km/h 8.7 km/h 82% 0.0 mm 0 W/m2
19:56 19.0 °C 15.7 °C 1023.2 hPa South 5.0 km/h 11.1 km/h 81% 0.0 mm 0 W/m2
20:01 18.9 °C 15.8 °C 1023.2 hPa SSE 5.0 km/h 11.1 km/h 82% 0.0 mm 0 W/m2
20:06 19.0 °C 15.9 °C 1023.6 hPa SSE 3.5 km/h 7.2 km/h 82% 0.0 mm 0 W/m2
20:11 18.9 °C 15.9 °C 1023.6 hPa South 3.5 km/h 9.7 km/h 83% 0.0 mm 0 W/m2
20:16 18.9 °C 15.9 °C 1023.6 hPa South 3.5 km/h 9.7 km/h 83% 0.0 mm 0 W/m2
20:21 19.0 °C 16.2 °C 1023.9 hPa South 11.1 km/h 14.8 km/h 84% 0.0 mm 0 W/m2
20:26 18.7 °C 16.3 °C 1023.9 hPa SSE 2.6 km/h 15.8 km/h 86% 0.3 mm 0 W/m2
20:31 18.4 °C 16.4 °C 1023.9 hPa Calm   15.8 km/h 88% 0.3 mm 0 W/m2
20:36 18.2 °C 16.4 °C 1023.9 hPa SSW 7.2 km/h 11.1 km/h 89% 0.3 mm 0 W/m2
20:41 18.2 °C 16.6 °C 1024.3 hPa SSW 1.1 km/h 11.1 km/h 90% 0.3 mm 0 W/m2
20:46 18.1 °C 16.6 °C 1024.3 hPa SSW 2.6 km/h 9.7 km/h 91% 0.3 mm 0 W/m2
20:51 18.1 °C 16.6 °C 1024.3 hPa Calm   7.2 km/h 91% 0.3 mm 0 W/m2
20:56 18.1 °C 16.8 °C 1024.3 hPa SSW 8.7 km/h 11.1 km/h 92% 0.3 mm 0 W/m2
21:01 18.3 °C 16.8 °C 1024.6 hPa SSW 6.1 km/h 11.1 km/h 91% 0.3 mm 0 W/m2
21:06 18.4 °C 16.9 °C 1024.6 hPa SSW 7.2 km/h 11.1 km/h 91% 0.3 mm 0 W/m2
21:11 18.4 °C 16.7 °C 1024.6 hPa SW 2.6 km/h 9.7 km/h 90% 0.3 mm 0 W/m2
21:16 18.3 °C 16.7 °C 1024.6 hPa SW 6.1 km/h 9.7 km/h 90% 0.3 mm 0 W/m2
21:21 18.3 °C 16.8 °C 1024.9 hPa SW 3.5 km/h 8.7 km/h 91% 0.3 mm 0 W/m2
21:26 18.4 °C 16.7 °C 1024.9 hPa SSW 5.0 km/h 8.7 km/h 90% 0.0 mm 0 W/m2
21:31 18.5 °C 16.8 °C 1024.9 hPa SSW 6.1 km/h 8.7 km/h 90% 0.0 mm 0 W/m2
21:36 18.6 °C 16.8 °C 1024.9 hPa SSW 6.1 km/h 15.8 km/h 89% 0.0 mm 0 W/m2
21:41 18.6 °C 16.8 °C 1024.9 hPa SSW 7.2 km/h 15.8 km/h 89% 0.0 mm 0 W/m2
21:46 18.6 °C 16.8 °C 1024.9 hPa South 8.7 km/h 13.4 km/h 89% 0.0 mm 0 W/m2
21:51 18.7 °C 16.7 °C 1025.3 hPa South 7.2 km/h 13.4 km/h 88% 0.0 mm 0 W/m2
21:56 18.7 °C 16.7 °C 1025.3 hPa SSW 9.7 km/h 14.8 km/h 88% 0.0 mm 0 W/m2
22:01 18.8 °C 16.8 °C 1025.3 hPa South 8.7 km/h 17.2 km/h 88% 0.0 mm 0 W/m2
22:06 18.8 °C 16.8 °C 1025.3 hPa South 9.7 km/h 18.3 km/h 88% 0.0 mm 0 W/m2
22:11 18.6 °C 16.6 °C 1025.3 hPa SSW 3.5 km/h 18.3 km/h 88% 0.0 mm 0 W/m2
22:16 18.5 °C 16.8 °C 1025.3 hPa SSW 7.2 km/h 17.2 km/h 90% 0.0 mm 0 W/m2
22:21 18.2 °C 16.7 °C 1025.6 hPa South 5.0 km/h 17.2 km/h 91% 0.0 mm 0 W/m2
22:26 18.1 °C 16.8 °C 1025.6 hPa SSW 9.7 km/h 17.2 km/h 92% 0.0 mm 0 W/m2
22:31 18.3 °C 17.0 °C 1025.6 hPa SSW 12.2 km/h 19.5 km/h 92% 0.0 mm 0 W/m2
22:36 18.3 °C 16.7 °C 1025.6 hPa South 11.1 km/h 19.5 km/h 90% 0.0 mm 0 W/m2
22:41 18.4 °C 16.6 °C 1025.6 hPa SSW 14.8 km/h 20.9 km/h 89% 0.0 mm 0 W/m2
22:46 18.5 °C 16.7 °C 1025.6 hPa SSW 13.4 km/h 20.9 km/h 89% 0.0 mm 0 W/m2
23:02 18.6 °C 16.8 °C 1026.0 hPa SSW 13.4 km/h 19.5 km/h 89% 0.0 mm 0 W/m2
23:07 18.5 °C 16.8 °C 1026.0 hPa SSW 12.2 km/h 19.5 km/h 90% 0.0 mm 0 W/m2
23:12 18.6 °C 16.9 °C 1026.0 hPa SSW 11.1 km/h 18.3 km/h 90% 0.0 mm 0 W/m2
23:17 18.6 °C 16.9 °C 1026.0 hPa SSW 9.7 km/h 18.3 km/h 90% 0.0 mm 0 W/m2
23:22 18.6 °C 16.9 °C 1026.0 hPa SSW 13.4 km/h 23.3 km/h 90% 0.0 mm 0 W/m2
23:27 18.6 °C 16.9 °C 1026.0 hPa SSW 13.4 km/h 23.3 km/h 90% 0.0 mm 0 W/m2
23:32 18.6 °C 16.9 °C 1026.0 hPa SSW 11.1 km/h 20.9 km/h 90% 0.0 mm 0 W/m2
23:33 18.6 °C 16.9 °C 1026.0 hPa SSW 9.7 km/h 20.9 km/h 90% 0.0 mm 0 W/m2
23:38 18.5 °C 17.0 °C 1026.0 hPa SW 12.2 km/h 18.3 km/h 91% 0.0 mm 0 W/m2
23:43 18.6 °C 17.1 °C 1026.3 hPa SSW 7.2 km/h 15.8 km/h 91% 0.0 mm 0 W/m2
23:48 18.6 °C 17.1 °C 1026.3 hPa SSW 14.8 km/h 17.2 km/h 91% 0.0 mm 0 W/m2
23:53 18.5 °C 16.8 °C 1026.0 hPa SSW 11.1 km/h 19.5 km/h 90% 0.0 mm 0 W/m2
23:58 18.5 °C 16.8 °C 1026.3 hPa SSW 8.7 km/h 19.5 km/h 90% 0.0 mm 0 W/m2
Northern Hawkes Bay. New Zealand Historic Data
Compliments of Weather Underground - 2.25 mb